| time (UTC) | temp F | wind direction | speed MPH | gust MPH | rain 1hr in | rain 24hr in | rain mn in | humidity % | barometer mb |
| 20260510214935 | 54 | 25 | 11.0 | 16.0 | 0.00 | 0.03 | 0.03 | 87 | 1021.0 |
| 20260510214433 | 54 | 8 | 9.0 | 16.0 | 0.00 | 0.03 | 0.03 | 87 | 1020.9 |
| 20260510213933 | 54 | 46 | 9.0 | 15.0 | 0.00 | 0.03 | 0.03 | 87 | 1020.9 |
| 20260510213434 | 54 | 16 | 9.0 | 15.0 | 0.00 | 0.03 | 0.03 | 87 | 1021.1 |
| 20260510212933 | 54 | 36 | 8.0 | 15.0 | 0.00 | 0.03 | 0.03 | 87 | 1021.1 |
| 20260510212704 | 54 | 8 | 8.0 | 13.0 | 0.00 | 0.03 | 0.03 | 87 | 1021.1 |
| 20260510212206 | 54 | 8 | 9.0 | 17.0 | 0.00 | 0.03 | 0.03 | 87 | 1021.2 |
| 20260510211701 | 53 | 19 | 9.0 | 17.0 | 0.00 | 0.03 | 0.03 | 87 | 1021.2 |
| 20260510210928 | 53 | 53 | 10.0 | 18.0 | 0.00 | 0.03 | 0.03 | 87 | 1021.2 |
| 20260510210429 | 53 | 56 | 12.0 | 19.0 | 0.00 | 0.03 | 0.03 | 87 | 1021.2 |
| 20260510205929 | 53 | 39 | 12.0 | 19.0 | 0.00 | 0.03 | 0.03 | 87 | 1021.1 |
| 20260510205700 | 53 | 56 | 11.0 | 18.0 | 0.00 | 0.03 | 0.03 | 87 | 1020.9 |
| 20260510204928 | 53 | 60 | 11.0 | 18.0 | 0.00 | 0.03 | 0.03 | 87 | 1020.8 |
| 20260510204429 | 53 | 57 | 10.0 | 18.0 | 0.00 | 0.03 | 0.03 | 87 | 1020.8 |
| 20260510203927 | 53 | 42 | 9.0 | 16.0 | 0.00 | 0.03 | 0.03 | 87 | 1020.9 |
| 20260510203658 | 53 | 102 | 11.0 | 19.0 | 0.00 | 0.03 | 0.03 | 87 | 1020.8 |
| 20260510202927 | 53 | 63 | 12.0 | 19.0 | 0.00 | 0.03 | 0.03 | 88 | 1020.7 |
| 20260510202425 | 53 | 63 | 10.0 | 18.0 | 0.00 | 0.03 | 0.03 | 88 | 1020.8 |
| 20260510201923 | 53 | 30 | 10.0 | 18.0 | 0.00 | 0.03 | 0.03 | 88 | 1020.9 |
| 20260510201421 | 53 | 29 | 12.0 | 20.0 | 0.00 | 0.03 | 0.03 | 88 | 1021.0 |
| 20260510201152 | 53 | 22 | 13.0 | 20.0 | 0.01 | 0.03 | 0.03 | 88 | 1020.8 |
| 20260510200653 | 53 | 27 | 11.0 | 16.0 | 0.02 | 0.03 | 0.03 | 88 | 1020.7 |
| 20260510195920 | 53 | 15 | 11.0 | 16.0 | 0.02 | 0.03 | 0.03 | 88 | 1021.0 |
| 20260510195649 | 53 | 9 | 11.0 | 18.0 | 0.02 | 0.03 | 0.03 | 88 | 1020.9 |
| 20260510194920 | 53 | 20 | 10.0 | 18.0 | 0.02 | 0.03 | 0.03 | 88 | 1021.0 |
| 20260510194651 | 53 | 10 | 9.0 | 19.0 | 0.02 | 0.03 | 0.03 | 88 | 1020.8 |
| 20260510193919 | 53 | 66 | 11.0 | 21.0 | 0.02 | 0.03 | 0.03 | 88 | 1020.2 |
| 20260510193649 | 53 | 61 | 11.0 | 21.0 | 0.03 | 0.03 | 0.03 | 88 | 1020.1 |
| 20260510192917 | 53 | 65 | 11.0 | 17.0 | 0.03 | 0.03 | 0.03 | 88 | 1020.4 |
| 20260510192648 | 53 | 72 | 12.0 | 19.0 | 0.03 | 0.03 | 0.03 | 89 | 1020.5 |
| 20260510191915 | 53 | 53 | 12.0 | 19.0 | 0.03 | 0.03 | 0.03 | 89 | 1020.8 |
| 20260510191647 | 53 | 41 | 13.0 | 20.0 | 0.03 | 0.03 | 0.03 | 89 | 1020.8 |
| 20260510191144 | 53 | 51 | 14.0 | 21.0 | 0.02 | 0.02 | 0.02 | 89 | 1020.8 |
| 20260510190416 | 52 | 44 | 15.0 | 22.0 | 0.01 | 0.01 | 0.01 | 89 | 1020.7 |
| 20260510190412 | 52 | 53 | 15.0 | 22.0 | 0.01 | 0.01 | 0.02 | 89 | 1020.7 |
| 20260510185413 | 52 | 15 | 13.0 | 22.0 | 0.01 | 0.01 | 0.01 | 88 | 1020.9 |
| 20260510184912 | 52 | 35 | 13.0 | 20.0 | 0.01 | 0.01 | 0.01 | 88 | 1020.9 |
| 20260510184411 | 52 | 356 | 14.0 | 20.0 | 0.01 | 0.01 | 0.01 | 87 | 1020.9 |
| 20260510183911 | 53 | 342 | 13.0 | 19.0 | 0.01 | 0.01 | 0.01 | 87 | 1020.9 |
| 20260510183410 | 53 | 4 | 15.0 | 24.0 | 0.00 | 0.00 | 0.00 | 85 | 1020.7 |
| 20260510182910 | 53 | 11 | 16.0 | 24.0 | 0.00 | 0.00 | 0.00 | 84 | 1020.6 |
| 20260510182411 | 54 | 22 | 15.0 | 21.0 | 0.00 | 0.00 | 0.00 | 84 | 1020.1 |
| 20260510181913 | 54 | 4 | 16.0 | 20.0 | 0.00 | 0.00 | 0.00 | 84 | 1019.6 |
| 20260510181410 | 54 | 20 | 12.0 | 19.0 | 0.00 | 0.00 | 0.00 | 82 | 1019.7 |
| 20260510181406 | 54 | 15 | 15.0 | 20.0 | 0.00 | 0.00 | 0.00 | 83 | 1019.6 |
| 20260510180404 | 55 | 1 | 12.0 | 19.0 | 0.00 | 0.00 | 0.00 | 80 | 1019.8 |
| 20260510175902 | 55 | 7 | 12.0 | 18.0 | 0.00 | 0.00 | 0.00 | 79 | 1019.8 |
| 20260510175403 | 55 | 27 | 13.0 | 19.0 | 0.00 | 0.00 | 0.00 | 78 | 1019.8 |
| 20260510175131 | 56 | 0 | 14.0 | 20.0 | 0.00 | 0.00 | 0.00 | 78 | 1019.7 |
| 20260510174401 | 56 | 21 | 13.0 | 20.0 | 0.00 | 0.00 | 0.00 | 78 | 1019.4 |
| 20260510173901 | 56 | 29 | 14.0 | 22.0 | 0.00 | 0.00 | 0.00 | 78 | 1019.3 |
| 20260510173400 | 56 | 0 | 16.0 | 22.0 | 0.00 | 0.00 | 0.00 | 79 | 1019.1 |
| 20260510172900 | 55 | 15 | 14.0 | 22.0 | 0.00 | 0.00 | 0.00 | 79 | 1019.0 |
| 20260510172356 | 55 | 39 | 13.0 | 21.0 | 0.00 | 0.00 | 0.00 | 79 | 1018.9 |
| 20260510171856 | 55 | 46 | 14.0 | 23.0 | 0.00 | 0.00 | 0.00 | 79 | 1018.7 |
| 20260510171628 | 55 | 20 | 17.0 | 26.0 | 0.00 | 0.00 | 0.00 | 80 | 1018.5 |
| 20260510171127 | 54 | 1 | 18.0 | 26.0 | 0.00 | 0.00 | 0.00 | 81 | 1018.4 |
| 20260510170627 | 54 | 25 | 19.0 | 28.0 | 0.00 | 0.00 | 0.00 | 81 | 1018.1 |
| 20260510165855 | 54 | 37 | 20.0 | 28.0 | 0.00 | 0.00 | 0.00 | 81 | 1017.9 |
| 20260510165354 | 54 | 23 | 21.0 | 32.0 | 0.00 | 0.00 | 0.00 | 81 | 1017.8 |
| 20260510164854 | 54 | 25 | 21.0 | 32.0 | 0.00 | 0.00 | 0.00 | 81 | 1017.8 |
| 20260510164355 | 54 | 25 | 20.0 | 33.0 | 0.00 | 0.00 | 0.00 | 81 | 1017.6 |
| 20260510163856 | 53 | 25 | 20.0 | 33.0 | 0.00 | 0.00 | 0.00 | 82 | 1017.9 |
| 20260510163354 | 53 | 15 | 18.0 | 29.0 | 0.00 | 0.00 | 0.00 | 82 | 1017.8 |
| 20260510162854 | 54 | 349 | 17.0 | 25.0 | 0.00 | 0.00 | 0.00 | 81 | 1017.7 |
| 20260510162354 | 54 | 3 | 18.0 | 27.0 | 0.00 | 0.00 | 0.00 | 81 | 1017.5 |
| 20260510161856 | 54 | 43 | 18.0 | 27.0 | 0.00 | 0.00 | 0.00 | 81 | 1017.4 |
| 20260510161352 | 53 | 18 | 16.0 | 26.0 | 0.00 | 0.00 | 0.00 | 81 | 1017.4 |
| 20260510160853 | 53 | 35 | 17.0 | 27.0 | 0.00 | 0.00 | 0.00 | 82 | 1017.3 |
| 20260510160353 | 53 | 34 | 16.0 | 27.0 | 0.00 | 0.00 | 0.00 | 82 | 1017.5 |
| 20260510160124 | 53 | 353 | 17.0 | 26.0 | 0.00 | 0.00 | 0.00 | 81 | 1017.3 |
| 20260510155352 | 53 | 0 | 19.0 | 26.0 | 0.00 | 0.00 | 0.00 | 81 | 1017.4 |
| 20260510154852 | 54 | 21 | 18.0 | 27.0 | 0.00 | 0.00 | 0.00 | 81 | 1017.1 |
| 20260510154353 | 54 | 26 | 18.0 | 27.0 | 0.00 | 0.00 | 0.00 | 81 | 1017.1 |
| 20260510153852 | 54 | 12 | 18.0 | 27.0 | 0.00 | 0.00 | 0.00 | 81 | 1016.9 |
| 20260510153357 | 55 | 1 | 15.0 | 24.0 | 0.00 | 0.00 | 0.00 | 81 | 1016.8 |
| 20260510153353 | 55 | 3 | 17.0 | 26.0 | 0.00 | 0.00 | 0.00 | 81 | 1016.9 |
| 20260510152352 | 56 | 1 | 14.0 | 25.0 | 0.00 | 0.00 | 0.00 | 80 | 1016.6 |
| 20260510151851 | 56 | 13 | 15.0 | 25.0 | 0.00 | 0.00 | 0.00 | 81 | 1016.7 |
| 20260510151621 | 56 | 1 | 16.0 | 23.0 | 0.00 | 0.00 | 0.00 | 82 | 1016.5 |
| 20260510150845 | 56 | 16 | 15.0 | 22.0 | 0.00 | 0.00 | 0.00 | 83 | 1016.5 |
| 20260510150343 | 56 | 4 | 15.0 | 24.0 | 0.00 | 0.00 | 0.00 | 83 | 1016.3 |
| 20260510145839 | 57 | 9 | 16.0 | 24.0 | 0.00 | 0.00 | 0.00 | 83 | 1016.1 |
| 20260510145338 | 57 | 26 | 16.0 | 24.0 | 0.00 | 0.00 | 0.00 | 84 | 1016.0 |
| 20260510144841 | 57 | 35 | 17.0 | 25.0 | 0.00 | 0.00 | 0.00 | 84 | 1015.3 |
| 20260510144836 | 57 | 6 | 17.0 | 29.0 | 0.00 | 0.00 | 0.00 | 83 | 1015.8 |
| 20260510144335 | 57 | 21 | 18.0 | 29.0 | 0.00 | 0.00 | 0.00 | 83 | 1015.5 |
| 20260510143334 | 57 | 22 | 16.0 | 25.0 | 0.00 | 0.00 | 0.00 | 84 | 1015.3 |
| 20260510142832 | 57 | 30 | 15.0 | 25.0 | 0.00 | 0.00 | 0.00 | 83 | 1015.2 |
| 20260510142607 | 58 | 9 | 17.0 | 26.0 | 0.00 | 0.00 | 0.00 | 81 | 1015.3 |
| 20260510142332 | 57 | 1 | 16.0 | 26.0 | 0.00 | 0.00 | 0.00 | 82 | 1015.3 |
| 20260510141333 | 58 | 18 | 17.0 | 24.0 | 0.00 | 0.00 | 0.00 | 80 | 1015.2 |
| 20260510141329 | 58 | 20 | 17.0 | 24.0 | 0.00 | 0.00 | 0.00 | 79 | 1015.0 |
| 20260510140328 | 59 | 1 | 17.0 | 28.0 | 0.00 | 0.00 | 0.00 | 77 | 1014.8 |
| 20260510140324 | 58 | 18 | 16.0 | 25.0 | 0.00 | 0.00 | 0.00 | 78 | 1015.0 |
| 20260510135555 | 59 | 16 | 19.0 | 28.0 | 0.00 | 0.00 | 0.00 | 78 | 1014.7 |
| 20260510134822 | 59 | 4 | 19.0 | 27.0 | 0.00 | 0.00 | 0.00 | 79 | 1014.5 |
| 20260510134323 | 59 | 16 | 17.0 | 27.0 | 0.00 | 0.00 | 0.00 | 78 | 1014.6 |
| 20260510133821 | 59 | 1 | 13.0 | 22.0 | 0.00 | 0.00 | 0.00 | 78 | 1014.4 |
| 20260510133319 | 60 | 22 | 13.0 | 22.0 | 0.00 | 0.00 | 0.00 | 78 | 1014.4 |
| 20260510132819 | 60 | 2 | 16.0 | 24.0 | 0.00 | 0.00 | 0.00 | 78 | 1014.2 |
| 20260510132318 | 60 | 21 | 17.0 | 26.0 | 0.00 | 0.00 | 0.00 | 79 | 1013.9 |
| 20260510131818 | 60 | 1 | 16.0 | 26.0 | 0.00 | 0.00 | 0.00 | 79 | 1013.8 |
| 20260510131315 | 61 | 35 | 15.0 | 20.0 | 0.00 | 0.00 | 0.00 | 79 | 1013.5 |
| 20260510130814 | 61 | 8 | 15.0 | 20.0 | 0.00 | 0.00 | 0.00 | 79 | 1013.4 |
| 20260510130315 | 61 | 21 | 14.0 | 20.0 | 0.00 | 0.00 | 0.00 | 78 | 1013.4 |
| 20260510130045 | 61 | 25 | 13.0 | 19.0 | 0.00 | 0.00 | 0.00 | 78 | 1013.2 |
| 20260510125310 | 61 | 13 | 12.0 | 17.0 | 0.00 | 0.00 | 0.00 | 77 | 1013.1 |
| 20260510124810 | 61 | 9 | 12.0 | 18.0 | 0.00 | 0.00 | 0.00 | 77 | 1013.1 |
| 20260510124309 | 62 | 11 | 14.0 | 18.0 | 0.00 | 0.00 | 0.00 | 77 | 1012.8 |
| 20260510123802 | 61 | 25 | 15.0 | 20.0 | 0.00 | 0.00 | 0.00 | 77 | 1012.7 |
| 20260510123531 | 61 | 41 | 13.0 | 20.0 | 0.00 | 0.00 | 0.00 | 77 | 1012.5 |
| 20260510122759 | 62 | 1 | 11.0 | 18.0 | 0.00 | 0.00 | 0.00 | 77 | 1012.3 |
| 20260510122301 | 61 | 33 | 12.0 | 18.0 | 0.00 | 0.00 | 0.00 | 79 | 1012.2 |
| 20260510121800 | 61 | 57 | 13.0 | 22.0 | 0.00 | 0.00 | 0.00 | 79 | 1012.0 |
| 20260510121301 | 61 | 71 | 12.0 | 22.0 | 0.00 | 0.00 | 0.00 | 79 | 1011.9 |
| 20260510120754 | 61 | 11 | 12.0 | 18.0 | 0.00 | 0.00 | 0.00 | 80 | 1012.1 |
| 20260510120254 | 61 | 52 | 12.0 | 20.0 | 0.00 | 0.00 | 0.00 | 80 | 1012.0 |
| 20260510115755 | 61 | 13 | 11.0 | 20.0 | 0.00 | 0.00 | 0.00 | 80 | 1011.9 |
| 20260510115252 | 61 | 12 | 11.0 | 20.0 | 0.00 | 0.00 | 0.00 | 80 | 1011.6 |
| 20260510114752 | 61 | 39 | 11.0 | 20.0 | 0.00 | 0.00 | 0.00 | 80 | 1011.5 |
| 20260510114252 | 61 | 32 | 12.0 | 18.0 | 0.00 | 0.00 | 0.00 | 80 | 1011.4 |
| 20260510113746 | 61 | 17 | 13.0 | 18.0 | 0.00 | 0.00 | 0.00 | 81 | 1011.2 |
| 20260510113242 | 61 | 52 | 12.0 | 18.0 | 0.00 | 0.00 | 0.00 | 80 | 1011.2 |
| 20260510112740 | 61 | 18 | 13.0 | 18.0 | 0.00 | 0.00 | 0.00 | 80 | 1011.1 |
| 20260510112240 | 61 | 13 | 12.0 | 18.0 | 0.00 | 0.00 | 0.00 | 80 | 1011.2 |
| 20260510112011 | 61 | 18 | 11.0 | 15.0 | 0.00 | 0.00 | 0.00 | 80 | 1011.1 |
| 20260510111238 | 60 | 14 | 12.0 | 16.0 | 0.00 | 0.00 | 0.00 | 79 | 1010.9 |
| 20260510110738 | 60 | 18 | 11.0 | 17.0 | 0.00 | 0.00 | 0.00 | 79 | 1010.8 |
| 20260510110236 | 60 | 22 | 9.0 | 17.0 | 0.00 | 0.00 | 0.00 | 79 | 1010.9 |
| 20260510105735 | 60 | 359 | 10.0 | 14.0 | 0.00 | 0.00 | 0.00 | 79 | 1010.7 |
| 20260510105236 | 60 | 15 | 10.0 | 14.0 | 0.00 | 0.00 | 0.00 | 79 | 1010.6 |
| 20260510104735 | 60 | 23 | 9.0 | 14.0 | 0.00 | 0.00 | 0.00 | 79 | 1010.7 |
| 20260510104508 | 60 | 1 | 7.0 | 13.0 | 0.00 | 0.00 | 0.00 | 78 | 1010.7 |
| 20260510103735 | 60 | 7 | 8.0 | 12.0 | 0.00 | 0.00 | 0.00 | 78 | 1010.5 |
| 20260510103226 | 61 | 15 | 8.0 | 16.0 | 0.00 | 0.00 | 0.00 | 77 | 1010.2 |
| 20260510102726 | 61 | 48 | 9.0 | 16.0 | 0.00 | 0.00 | 0.00 | 77 | 1010.1 |
| 20260510102226 | 61 | 1 | 10.0 | 16.0 | 0.00 | 0.00 | 0.00 | 76 | 1010.4 |
| 20260510101727 | 61 | 4 | 10.0 | 14.0 | 0.00 | 0.00 | 0.00 | 76 | 1010.3 |
| 20260510101225 | 61 | 26 | 9.0 | 13.0 | 0.00 | 0.00 | 0.00 | 75 | 1010.0 |
| 20260510100722 | 61 | 22 | 8.0 | 13.0 | 0.00 | 0.00 | 0.00 | 75 | 1009.9 |
| 20260510100222 | 62 | 12 | 7.0 | 11.0 | 0.00 | 0.00 | 0.00 | 75 | 1009.9 |
| 20260510095721 | 62 | 11 | 7.0 | 11.0 | 0.00 | 0.00 | 0.00 | 76 | 1009.6 |
| 20260510095452 | 62 | 35 | 8.0 | 11.0 | 0.00 | 0.00 | 0.00 | 76 | 1009.4 |
| 20260510094722 | 62 | 6 | 7.0 | 12.0 | 0.00 | 0.00 | 0.00 | 75 | 1009.4 |
| 20260510094219 | 62 | 60 | 7.0 | 12.0 | 0.00 | 0.00 | 0.00 | 76 | 1009.0 |
| 20260510093950 | 62 | 68 | 6.0 | 10.0 | 0.00 | 0.00 | 0.00 | 77 | 1008.8 |
| 20260510093220 | 61 | 72 | 5.0 | 10.0 | 0.00 | 0.00 | 0.00 | 77 | 1008.8 |
| 20260510092719 | 61 | 37 | 5.0 | 8.0 | 0.00 | 0.00 | 0.00 | 76 | 1008.7 |
| 20260510092218 | 62 | 30 | 4.0 | 9.0 | 0.00 | 0.00 | 0.00 | 75 | 1008.7 |
| 20260510091716 | 62 | 38 | 4.0 | 9.0 | 0.00 | 0.00 | 0.00 | 75 | 1008.5 |
| 20260510091218 | 63 | 32 | 4.0 | 9.0 | 0.00 | 0.00 | 0.00 | 74 | 1008.4 |
| 20260510091214 | 63 | 25 | 4.0 | 8.0 | 0.00 | 0.00 | 0.00 | 74 | 1008.5 |
| 20260510090211 | 63 | 51 | 5.0 | 10.0 | 0.00 | 0.00 | 0.00 | 75 | 1008.4 |
| 20260510085713 | 63 | 44 | 5.0 | 10.0 | 0.00 | 0.00 | 0.00 | 75 | 1008.2 |
| 20260510085441 | 63 | 18 | 5.0 | 9.0 | 0.00 | 0.00 | 0.00 | 75 | 1008.2 |
| 20260510084710 | 63 | 31 | 4.0 | 8.0 | 0.00 | 0.00 | 0.00 | 74 | 1008.2 |
| 20260510084209 | 63 | 43 | 5.0 | 8.0 | 0.00 | 0.00 | 0.00 | 73 | 1008.3 |
| 20260510083931 | 64 | 68 | 4.0 | 7.0 | 0.00 | 0.00 | 0.00 | 72 | 1008.5 |
| 20260510083200 | 65 | 15 | 4.0 | 8.0 | 0.00 | 0.00 | 0.00 | 72 | 1008.4 |
| 20260510082930 | 65 | 39 | 5.0 | 8.0 | 0.00 | 0.00 | 0.00 | 72 | 1008.6 |
| 20260510082158 | 65 | 23 | 5.0 | 10.0 | 0.00 | 0.00 | 0.00 | 71 | 1008.4 |
| 20260510081659 | 65 | 73 | 5.0 | 10.0 | 0.00 | 0.00 | 0.00 | 71 | 1008.3 |
| 20260510081155 | 66 | 92 | 7.0 | 14.0 | 0.00 | 0.00 | 0.00 | 71 | 1008.6 |
| 20260510080654 | 66 | 84 | 7.0 | 14.0 | 0.00 | 0.00 | 0.00 | 71 | 1008.6 |
| 20260510080151 | 66 | 56 | 9.0 | 18.0 | 0.00 | 0.00 | 0.00 | 70 | 1008.5 |
| 20260510075653 | 66 | 51 | 11.0 | 18.0 | 0.00 | 0.00 | 0.00 | 70 | 1008.5 |
| 20260510075151 | 67 | 116 | 11.0 | 16.0 | 0.00 | 0.00 | 0.00 | 70 | 1008.4 |
| 20260510074652 | 67 | 87 | 8.0 | 14.0 | 0.00 | 0.00 | 0.00 | 69 | 1008.5 |
| 20260510074150 | 67 | 89 | 4.0 | 13.0 | 0.00 | 0.00 | 0.00 | 68 | 1008.3 |
| 20260510073649 | 67 | 116 | 5.0 | 10.0 | 0.00 | 0.00 | 0.00 | 66 | 1008.3 |
| 20260510073149 | 68 | 70 | 5.0 | 11.0 | 0.00 | 0.00 | 0.00 | 66 | 1008.2 |
| 20260510072650 | 68 | 53 | 5.0 | 11.0 | 0.00 | 0.00 | 0.00 | 65 | 1008.1 |
| 20260510072149 | 68 | 84 | 6.0 | 11.0 | 0.00 | 0.00 | 0.00 | 64 | 1008.1 |
| 20260510071648 | 69 | 91 | 8.0 | 17.0 | 0.00 | 0.00 | 0.00 | 64 | 1008.0 |
| 20260510071417 | 69 | 70 | 10.0 | 17.0 | 0.00 | 0.00 | 0.00 | 64 | 1007.9 |
| 20260510070645 | 69 | 41 | 11.0 | 16.0 | 0.00 | 0.00 | 0.00 | 63 | 1008.0 |
| 20260510070146 | 69 | 53 | 10.0 | 16.0 | 0.00 | 0.00 | 0.00 | 63 | 1008.0 |
| 20260510065643 | 69 | 41 | 9.0 | 15.0 | 0.00 | 0.00 | 0.00 | 62 | 1008.1 |
| 20260510065144 | 69 | 13 | 9.0 | 15.0 | 0.00 | 0.00 | 0.00 | 60 | 1008.1 |
| 20260510064644 | 70 | 28 | 10.0 | 17.0 | 0.00 | 0.00 | 0.00 | 59 | 1008.3 |
| 20260510064412 | 70 | 11 | 10.0 | 17.0 | 0.00 | 0.00 | 0.00 | 57 | 1008.4 |
| 20260510063913 | 71 | 25 | 10.0 | 18.0 | 0.00 | 0.00 | 0.00 | 55 | 1008.4 |
| 20260510063139 | 71 | 23 | 10.0 | 18.0 | 0.00 | 0.00 | 0.00 | 53 | 1008.4 |
| 20260510062640 | 72 | 32 | 9.0 | 15.0 | 0.00 | 0.00 | 0.00 | 48 | 1008.3 |
| 20260510062411 | 72 | 65 | 10.0 | 15.0 | 0.00 | 0.00 | 0.00 | 47 | 1008.3 |
| 20260510061640 | 73 | 24 | 10.0 | 18.0 | 0.00 | 0.00 | 0.00 | 44 | 1008.2 |
| 20260510061139 | 73 | 16 | 10.0 | 18.0 | 0.00 | 0.00 | 0.00 | 38 | 1008.1 |
| 20260510060637 | 74 | 43 | 9.0 | 16.0 | 0.00 | 0.00 | 0.00 | 29 | 1007.8 |
| 20260510060137 | 75 | 93 | 7.0 | 16.0 | 0.00 | 0.00 | 0.00 | 26 | 1007.6 |
| 20260510055636 | 75 | 58 | 5.0 | 12.0 | 0.00 | 0.00 | 0.00 | 21 | 1007.6 |
| 20260510055135 | 76 | 77 | 4.0 | 9.0 | 0.00 | 0.00 | 0.00 | 20 | 1007.4 |
| 20260510054633 | 76 | 61 | 5.0 | 9.0 | 0.00 | 0.00 | 0.00 | 20 | 1007.1 |
| 20260510054405 | 76 | 46 | 5.0 | 9.0 | 0.00 | 0.00 | 0.00 | 20 | 1007.1 |
| 20260510053633 | 76 | 53 | 5.0 | 9.0 | 0.00 | 0.00 | 0.00 | 20 | 1007.0 |
| 20260510053131 | 76 | 40 | 5.0 | 9.0 | 0.00 | 0.00 | 0.00 | 21 | 1007.0 |
| 20260510052632 | 76 | 29 | 4.0 | 9.0 | 0.00 | 0.00 | 0.00 | 20 | 1007.1 |
| 20260510052126 | 76 | 60 | 2.0 | 9.0 | 0.00 | 0.00 | 0.00 | 20 | 1007.2 |
| 20260510051626 | 76 | 46 | 2.0 | 4.0 | 0.00 | 0.00 | 0.00 | 20 | 1007.2 |
| 20260510051124 | 76 | 20 | 2.0 | 4.0 | 0.00 | 0.00 | 0.00 | 20 | 1007.3 |
| 20260510050843 | 76 | 15 | 1.0 | 4.0 | 0.00 | 0.00 | 0.00 | 20 | 1007.4 |
| 20260510050112 | 77 | 15 | 2.0 | 4.0 | 0.00 | 0.00 | 0.00 | 19 | 1007.4 |
| 20260510045605 | 77 | 3 | 3.0 | 5.0 | 0.00 | 0.00 | 0.00 | 19 | 1007.4 |
| 20260510045106 | 78 | 1 | 3.0 | 5.0 | 0.00 | 0.00 | 0.00 | 18 | 1007.5 |
| 20260510044559 | 79 | 45 | 3.0 | 5.0 | 0.00 | 0.00 | 0.00 | 18 | 1007.4 |
| 20260510044100 | 80 | 23 | 3.0 | 6.0 | 0.00 | 0.00 | 0.00 | 17 | 1007.4 |
| 20260510043559 | 80 | 16 | 5.0 | 9.0 | 0.00 | 0.00 | 0.00 | 17 | 1007.4 |
| 20260510043059 | 81 | 10 | 7.0 | 13.0 | 0.00 | 0.00 | 0.00 | 16 | 1007.4 |
| 20260510042558 | 82 | 13 | 8.0 | 13.0 | 0.00 | 0.00 | 0.00 | 16 | 1007.3 |
| 20260510042055 | 81 | 27 | 6.0 | 13.0 | 0.00 | 0.00 | 0.00 | 16 | 1007.2 |
| 20260510041827 | 82 | 12 | 4.0 | 11.0 | 0.00 | 0.00 | 0.00 | 16 | 1007.3 |
| 20260510041056 | 84 | 13 | 5.0 | 15.0 | 0.00 | 0.00 | 0.00 | 15 | 1007.4 |
| 20260510040553 | 83 | 339 | 10.0 | 19.0 | 0.00 | 0.00 | 0.00 | 16 | 1007.4 |
| 20260510040054 | 83 | 0 | 13.0 | 21.0 | 0.00 | 0.00 | 0.00 | 16 | 1007.4 |
| 20260510035553 | 83 | 341 | 16.0 | 28.0 | 0.00 | 0.00 | 0.00 | 16 | 1007.2 |
| 20260510035054 | 83 | 318 | 16.0 | 28.0 | 0.00 | 0.00 | 0.00 | 16 | 1007.1 |
| 20260510034554 | 82 | 354 | 15.0 | 21.0 | 0.00 | 0.00 | 0.00 | 16 | 1006.9 |
| 20260510034051 | 82 | 359 | 15.0 | 23.0 | 0.00 | 0.00 | 0.00 | 16 | 1007.3 |
| 20260510033551 | 82 | 335 | 11.0 | 23.0 | 0.00 | 0.00 | 0.00 | 17 | 1007.3 |
| 20260510033053 | 82 | 303 | 7.0 | 14.0 | 0.00 | 0.00 | 0.00 | 16 | 1007.1 |
| 20260510032551 | 82 | 327 | 6.0 | 12.0 | 0.00 | 0.00 | 0.00 | 15 | 1006.9 |
| 20260510032053 | 82 | 359 | 8.0 | 12.0 | 0.00 | 0.00 | 0.00 | 14 | 1006.6 |
| 20260510031823 | 80 | 17 | 6.0 | 10.0 | 0.00 | 0.00 | 0.00 | 14 | 1006.5 |
| 20260510031053 | 79 | 25 | 6.0 | 8.0 | 0.00 | 0.00 | 0.00 | 15 | 1006.6 |
| 20260510030551 | 79 | 25 | 7.0 | 12.0 | 0.00 | 0.00 | 0.00 | 15 | 1006.7 |
| 20260510030050 | 78 | 24 | 6.0 | 12.0 | 0.00 | 0.00 | 0.00 | 16 | 1006.6 |
| 20260510025550 | 78 | 1 | 3.0 | 8.0 | 0.00 | 0.00 | 0.00 | 16 | 1006.6 |
| 20260510025321 | 80 | 336 | 1.0 | 5.0 | 0.00 | 0.00 | 0.00 | 16 | 1006.4 |
| 20260510024549 | 80 | 236 | 1.0 | 4.0 | 0.00 | 0.00 | 0.00 | 15 | 1006.1 |
| 20260510024041 | 80 | 142 | 0.0 | 3.0 | 0.00 | 0.00 | 0.00 | 14 | 1005.9 |
| 20260510023538 | 80 | 115 | 0.0 | 0.0 | 0.00 | 0.00 | 0.00 | 14 | 1005.7 |
| 20260510023305 | 80 | 115 | 0.0 | 1.0 | 0.00 | 0.00 | 0.00 | 14 | 1005.7 |
| 20260510022524 | 80 | 99 | 1.0 | 3.0 | 0.00 | 0.00 | 0.00 | 14 | 1005.6 |
| 20260510022013 | 81 | 168 | 2.0 | 4.0 | 0.00 | 0.00 | 0.00 | 14 | 1005.6 |
| 20260510021507 | 81 | 206 | 4.0 | 8.0 | 0.00 | 0.00 | 0.00 | 14 | 1005.6 |
| 20260510021243 | 83 | 184 | 6.0 | 10.0 | 0.00 | 0.00 | 0.00 | 14 | 1005.4 |
| 20260510021007 | 82 | 200 | 6.0 | 9.0 | 0.00 | 0.00 | 0.00 | 13 | 1005.5 |
| 20260510020003 | 83 | 207 | 6.0 | 10.0 | 0.00 | 0.00 | 0.00 | 17 | 1005.4 |
| 20260510015504 | 83 | 223 | 5.0 | 10.0 | 0.00 | 0.00 | 0.00 | 14 | 1005.3 |
| 20260510015236 | 84 | 208 | 2.0 | 6.0 | 0.00 | 0.00 | 0.00 | 17 | 1005.1 |
| 20260510014453 | 85 | 210 | 1.0 | 2.0 | 0.00 | 0.00 | 0.00 | 17 | 1005.1 |
| 20260510013953 | 85 | 223 | 0.0 | 2.0 | 0.00 | 0.00 | 0.00 | 14 | 1005.0 |
| 20260510013451 | 85 | 348 | 0.0 | 0.0 | 0.00 | 0.00 | 0.00 | 12 | 1004.9 |
| 20260510012951 | 85 | 348 | 0.0 | 0.0 | 0.00 | 0.00 | 0.00 | 11 | 1004.9 |
| 20260510012715 | 85 | 348 | 0.0 | 0.0 | 0.00 | 0.00 | 0.00 | 11 | 1004.9 |
| 20260510011928 | 85 | 348 | 0.0 | 0.0 | 0.00 | 0.00 | 0.00 | 11 | 1004.8 |
| 20260510011421 | 85 | 348 | 0.0 | 0.0 | 0.00 | 0.00 | 0.00 | 11 | 1004.7 |
| 20260510010906 | 86 | 348 | 1.0 | 3.0 | 0.00 | 0.00 | 0.00 | 10 | 1004.7 |
| 20260510010348 | 86 | 348 | 3.0 | 6.0 | 0.00 | 0.00 | 0.00 | 10 | 1004.7 |
| 20260510010118 | 87 | 0 | 3.0 | 6.0 | 0.00 | 0.00 | 0.00 | 10 | 1004.6 |
| 20260510005349 | 87 | 344 | 4.0 | 6.0 | 0.00 | 0.00 | 0.00 | 10 | 1004.5 |
| 20260510004847 | 88 | 346 | 5.0 | 8.0 | 0.00 | 0.00 | 0.00 | 10 | 1004.6 |
| 20260510004348 | 89 | 336 | 6.0 | 10.0 | 0.00 | 0.00 | 0.00 | 10 | 1004.6 |
| 20260510003848 | 89 | 333 | 6.0 | 10.0 | 0.00 | 0.00 | 0.00 | 9 | 1004.5 |
| 20260510003348 | 89 | 344 | 5.0 | 8.0 | 0.00 | 0.00 | 0.00 | 9 | 1004.5 |
| 20260510003116 | 89 | 352 | 4.0 | 8.0 | 0.00 | 0.00 | 0.00 | 9 | 1004.6 |
| 20260510002346 | 89 | 353 | 6.0 | 10.0 | 0.00 | 0.00 | 0.00 | 9 | 1004.5 |
| 20260510001844 | 89 | 1 | 7.0 | 10.0 | 0.00 | 0.00 | 0.00 | 9 | 1004.6 |
| 20260510001341 | 89 | 330 | 7.0 | 13.0 | 0.00 | 0.00 | 0.00 | 9 | 1004.6 |
| 20260510000842 | 89 | 329 | 7.0 | 14.0 | 0.00 | 0.00 | 0.00 | 9 | 1004.6 |
| 20260510000341 | 89 | 335 | 8.0 | 14.0 | 0.00 | 0.00 | 0.00 | 9 | 1004.6 |
| 20260509235833 | 89 | 344 | 9.0 | 14.0 | 0.00 | 0.00 | 0.00 | 9 | 1004.6 |
| 20260509235333 | 89 | 326 | 8.0 | 14.0 | 0.00 | 0.00 | 0.00 | 9 | 1004.6 |
| 20260509234831 | 89 | 345 | 6.0 | 11.0 | 0.00 | 0.00 | 0.00 | 8 | 1004.6 |
| 20260509234602 | 89 | 311 | 5.0 | 11.0 | 0.00 | 0.00 | 0.00 | 8 | 1004.7 |
| 20260509233830 | 89 | 347 | 8.0 | 16.0 | 0.00 | 0.00 | 0.00 | 8 | 1004.7 |
| 20260509233328 | 89 | 352 | 9.0 | 16.0 | 0.00 | 0.00 | 0.00 | 8 | 1004.8 |
| 20260509232827 | 90 | 307 | 9.0 | 16.0 | 0.00 | 0.00 | 0.00 | 9 | 1004.8 |
| 20260509232325 | 91 | 292 | 7.0 | 16.0 | 0.00 | 0.00 | 0.00 | 8 | 1004.9 |
| 20260509231825 | 90 | 300 | 6.0 | 10.0 | 0.00 | 0.00 | 0.00 | 8 | 1004.9 |
| 20260509231551 | 89 | 359 | 9.0 | 20.0 | 0.00 | 0.00 | 0.00 | 8 | 1005.0 |
| 20260509230819 | 90 | 342 | 9.0 | 20.0 | 0.00 | 0.00 | 0.00 | 8 | 1005.0 |
| 20260509230320 | 90 | 288 | 8.0 | 14.0 | 0.00 | 0.00 | 0.00 | 8 | 1004.9 |
| 20260509225819 | 90 | 346 | 7.0 | 14.0 | 0.00 | 0.00 | 0.00 | 8 | 1005.0 |
| 20260509225313 | 91 | 290 | 8.0 | 16.0 | 0.00 | 0.00 | 0.00 | 8 | 1005.0 |
| 20260509225043 | 91 | 315 | 10.0 | 18.0 | 0.00 | 0.00 | 0.00 | 8 | 1005.1 |
| 20260509224312 | 90 | 252 | 9.0 | 18.0 | 0.00 | 0.00 | 0.00 | 8 | 1005.2 |
| 20260509223811 | 90 | 335 | 9.0 | 16.0 | 0.00 | 0.00 | 0.00 | 9 | 1005.2 |
| 20260509223308 | 90 | 354 | 8.0 | 16.0 | 0.00 | 0.00 | 0.00 | 8 | 1005.3 |
| 20260509223041 | 89 | 290 | 6.0 | 11.0 | 0.00 | 0.00 | 0.00 | 8 | 1005.4 |
| 20260509222309 | 90 | 283 | 8.0 | 18.0 | 0.00 | 0.00 | 0.00 | 9 | 1005.5 |
| 20260509222040 | 89 | 319 | 10.0 | 18.0 | 0.00 | 0.00 | 0.00 | 9 | 1005.5 |
| 20260509221309 | 91 | 352 | 8.0 | 16.0 | 0.00 | 0.00 | 0.00 | 9 | 1005.6 |
| 20260509220805 | 90 | 354 | 9.0 | 19.0 | 0.00 | 0.00 | 0.00 | 9 | 1005.8 |
| 20260509220305 | 90 | 280 | 10.0 | 19.0 | 0.00 | 0.00 | 0.00 | 9 | 1005.8 |
| 20260509215805 | 90 | 274 | 10.0 | 19.0 | 0.00 | 0.00 | 0.00 | 9 | 1005.9 |
| 20260509215536 | 91 | 300 | 10.0 | 19.0 | 0.00 | 0.00 | 0.00 | 9 | 1005.8 |